createdAt,value
2022-09-03T00:00:28.688Z,0.00
2022-09-03T00:01:28.753Z,0.00
2022-09-03T00:02:28.779Z,0.00
2022-09-03T00:03:28.721Z,0.00
2022-09-03T00:04:28.725Z,0.00
2022-09-03T00:05:28.734Z,0.00
2022-09-03T00:06:28.749Z,0.00
2022-09-03T00:07:28.753Z,0.00
2022-09-03T00:08:28.760Z,0.00
2022-09-03T00:09:28.778Z,0.00
2022-09-03T00:10:28.778Z,0.00
2022-09-03T00:11:28.800Z,0.00
2022-09-03T00:12:28.804Z,0.00
2022-09-03T00:13:28.807Z,0.00
2022-09-03T00:14:28.821Z,0.00
2022-09-03T00:15:28.832Z,0.00
2022-09-03T00:16:28.897Z,0.00
2022-09-03T00:17:28.844Z,0.00
2022-09-03T00:18:28.850Z,0.00
2022-09-03T00:19:28.869Z,0.00
2022-09-03T00:20:28.871Z,0.00
2022-09-03T00:21:28.888Z,0.00
2022-09-03T00:22:28.896Z,0.00
2022-09-03T00:23:28.906Z,0.00
2022-09-03T00:24:28.907Z,0.00
2022-09-03T00:25:28.915Z,0.00
2022-09-03T00:26:28.950Z,0.00
2022-09-03T00:27:28.939Z,0.00
2022-09-03T00:28:28.943Z,0.00
2022-09-03T00:29:28.959Z,0.00
2022-09-03T00:30:28.964Z,0.00
2022-09-03T00:31:29.027Z,0.00
2022-09-03T00:32:28.982Z,0.00
2022-09-03T00:33:28.998Z,0.00
2022-09-03T00:34:28.999Z,0.00
2022-09-03T00:35:29.008Z,0.00
2022-09-03T00:36:29.018Z,0.00
2022-09-03T00:37:29.023Z,0.00
2022-09-03T00:38:29.033Z,0.00
2022-09-03T00:39:29.095Z,0.00
2022-09-03T00:40:29.059Z,0.00
2022-09-03T00:41:29.067Z,0.00
2022-09-03T00:42:29.076Z,0.00
2022-09-03T00:43:29.084Z,0.00
2022-09-03T00:44:29.087Z,0.00
2022-09-03T00:45:29.106Z,0.00
2022-09-03T00:46:29.190Z,0.00
2022-09-03T00:47:29.114Z,0.00
2022-09-03T00:48:29.268Z,0.00
2022-09-03T00:49:29.139Z,0.00
2022-09-03T00:50:29.158Z,0.00
2022-09-03T00:51:29.156Z,0.00
2022-09-03T00:52:33.385Z,0.00
2022-09-03T00:53:29.168Z,0.00
2022-09-03T00:54:29.183Z,0.00
2022-09-03T00:55:29.192Z,0.00
2022-09-03T00:56:29.195Z,0.00
2022-09-03T00:57:29.204Z,0.00
2022-09-03T00:58:29.210Z,0.00
2022-09-03T00:59:29.221Z,0.00
2022-09-03T01:00:29.236Z,0.00
2022-09-03T01:01:29.352Z,0.00
2022-09-03T01:02:29.407Z,0.00
2022-09-03T01:03:29.256Z,0.00
2022-09-03T01:04:29.274Z,0.00
2022-09-03T01:05:29.280Z,0.00
2022-09-03T01:06:29.289Z,0.00
2022-09-03T01:07:29.297Z,0.00
2022-09-03T01:08:29.300Z,0.00
2022-09-03T01:09:29.308Z,0.00
2022-09-03T01:10:29.318Z,0.00
2022-09-03T01:11:29.332Z,0.00
2022-09-03T01:12:29.343Z,0.00
2022-09-03T01:13:29.344Z,0.00
2022-09-03T01:14:29.360Z,0.00
2022-09-03T01:15:29.416Z,0.00
2022-09-03T01:16:29.371Z,0.00
2022-09-03T01:17:29.381Z,0.00
2022-09-03T01:18:29.388Z,0.00
2022-09-03T01:19:29.402Z,0.00
2022-09-03T01:20:29.405Z,0.00
2022-09-03T01:21:29.423Z,0.00
2022-09-03T01:22:29.422Z,0.00
2022-09-03T01:23:29.433Z,0.00
2022-09-03T01:24:29.446Z,0.00
2022-09-03T01:25:29.450Z,0.00
2022-09-03T01:26:29.462Z,0.00
2022-09-03T01:27:29.466Z,0.00
2022-09-03T01:28:29.474Z,0.00
2022-09-03T01:29:29.484Z,0.00
2022-09-03T01:30:29.498Z,0.00
2022-09-03T01:31:29.548Z,0.00
2022-09-03T01:32:29.516Z,0.00
2022-09-03T01:33:29.526Z,0.00
2022-09-03T01:34:29.526Z,0.00
2022-09-03T01:35:29.544Z,0.00
2022-09-03T01:36:29.543Z,0.00
2022-09-03T01:37:29.560Z,0.00
2022-09-03T01:38:29.569Z,0.00
2022-09-03T01:39:29.652Z,0.00
2022-09-03T01:40:29.580Z,0.00
2022-09-03T01:41:29.590Z,0.00
2022-09-03T01:42:29.602Z,0.00
2022-09-03T01:43:29.604Z,0.00
2022-09-03T01:44:29.621Z,0.00
2022-09-03T01:45:29.620Z,0.00
2022-09-03T01:46:29.692Z,0.00
2022-09-03T01:47:29.645Z,0.00
2022-09-03T01:48:29.655Z,0.00
2022-09-03T01:49:29.654Z,0.00
2022-09-03T01:50:29.671Z,0.00
2022-09-03T01:51:29.679Z,0.00
2022-09-03T01:52:29.691Z,0.00
2022-09-03T01:53:29.689Z,0.00
2022-09-03T01:54:29.706Z,0.00
2022-09-03T01:55:29.708Z,0.00
2022-09-03T01:56:29.714Z,0.00
2022-09-03T01:57:35.165Z,0.00
2022-09-03T01:58:29.731Z,0.00
2022-09-03T01:59:29.742Z,0.00
2022-09-03T02:00:29.756Z,0.00
2022-09-03T02:01:29.853Z,0.00
2022-09-03T02:02:29.795Z,0.00
2022-09-03T02:03:29.776Z,0.00
2022-09-03T02:04:29.790Z,0.00
2022-09-03T02:05:29.801Z,0.00
2022-09-03T02:06:29.807Z,0.00
2022-09-03T02:07:29.810Z,0.00
2022-09-03T02:08:29.819Z,0.00
2022-09-03T02:09:32.661Z,0.00
2022-09-03T02:10:29.841Z,0.00
2022-09-03T02:11:29.843Z,0.00
2022-09-03T02:12:29.860Z,0.00
2022-09-03T02:13:29.860Z,0.00
2022-09-03T02:14:29.868Z,0.00
2022-09-03T02:15:29.885Z,0.00
2022-09-03T02:16:29.892Z,0.00
2022-09-03T02:17:29.902Z,0.00
2022-09-03T02:18:29.904Z,0.00
2022-09-03T02:19:29.912Z,0.00
2022-09-03T02:20:29.927Z,0.00
2022-09-03T02:21:29.936Z,0.00
2022-09-03T02:22:29.935Z,0.00
2022-09-03T02:23:29.947Z,0.00
2022-09-03T02:24:29.953Z,0.00
2022-09-03T02:25:29.971Z,0.00
2022-09-03T02:26:29.976Z,0.00
2022-09-03T02:27:29.986Z,0.00
2022-09-03T02:28:30.213Z,0.00
2022-09-03T02:29:30.002Z,0.00
2022-09-03T02:30:30.062Z,0.00
2022-09-03T02:31:30.075Z,0.00
2022-09-03T02:32:30.029Z,0.00
2022-09-03T02:33:30.036Z,0.00
2022-09-03T02:34:30.038Z,0.00
2022-09-03T02:35:30.054Z,0.00
2022-09-03T02:36:30.055Z,0.00
2022-09-03T02:37:30.063Z,0.00
2022-09-03T02:38:30.078Z,0.00
2022-09-03T02:39:30.141Z,0.00
2022-09-03T02:40:30.097Z,0.00
2022-09-03T02:41:30.103Z,0.00
2022-09-03T02:42:30.105Z,0.00
2022-09-03T02:43:30.120Z,0.00
2022-09-03T02:44:30.130Z,0.00
2022-09-03T02:45:30.137Z,0.00
2022-09-03T02:46:30.241Z,0.00
2022-09-03T02:47:30.154Z,0.00
2022-09-03T02:48:30.160Z,0.00
2022-09-03T02:49:30.164Z,0.00
2022-09-03T02:50:30.171Z,0.00
2022-09-03T02:51:30.181Z,0.00
2022-09-03T02:52:30.195Z,0.00
2022-09-03T02:53:30.206Z,0.00
2022-09-03T02:54:30.204Z,0.00
2022-09-03T02:55:30.222Z,0.00
2022-09-03T02:56:30.228Z,0.00
2022-09-03T02:57:30.239Z,0.00
2022-09-03T02:58:30.244Z,0.00
2022-09-03T02:59:30.248Z,0.00
2022-09-03T03:00:30.261Z,0.00
2022-09-03T03:01:30.338Z,0.00
2022-09-03T03:02:30.342Z,0.00
2022-09-03T03:03:30.278Z,0.00
2022-09-03T03:04:30.289Z,0.00
2022-09-03T03:05:30.296Z,0.00
2022-09-03T03:06:30.305Z,0.00
2022-09-03T03:07:30.313Z,0.00
2022-09-03T03:08:30.334Z,0.00
2022-09-03T03:09:30.328Z,0.00
2022-09-03T03:10:30.346Z,0.00
2022-09-03T03:11:30.352Z,0.00
2022-09-03T03:12:30.355Z,0.00
2022-09-03T03:13:30.369Z,0.00
2022-09-03T03:14:30.378Z,0.00
2022-09-03T03:15:30.377Z,0.00
2022-09-03T03:16:30.448Z,0.00
2022-09-03T03:17:30.402Z,0.00
2022-09-03T03:18:30.413Z,0.00
2022-09-03T03:19:30.410Z,0.00
2022-09-03T03:20:30.421Z,0.00
2022-09-03T03:21:30.432Z,0.00
2022-09-03T03:22:30.442Z,0.00
2022-09-03T03:23:30.453Z,0.00
2022-09-03T03:24:30.452Z,0.00
2022-09-03T03:25:30.469Z,0.00
2022-09-03T03:26:30.469Z,0.00
2022-09-03T03:27:30.477Z,0.00
2022-09-03T03:28:30.492Z,0.00
2022-09-03T03:29:30.494Z,0.00
2022-09-03T03:30:30.518Z,0.00
2022-09-03T03:31:30.518Z,0.00
2022-09-03T03:32:30.518Z,0.00
2022-09-03T03:33:30.527Z,0.00
2022-09-03T03:34:30.533Z,0.00
2022-09-03T03:35:30.552Z,0.00
2022-09-03T03:36:30.557Z,0.00
2022-09-03T03:37:30.768Z,0.00
2022-09-03T03:38:30.575Z,0.00
2022-09-03T03:39:30.678Z,0.00
2022-09-03T03:40:30.594Z,0.00
2022-09-03T03:41:30.590Z,0.00
2022-09-03T03:42:30.601Z,0.00
2022-09-03T03:43:30.616Z,0.00
2022-09-03T03:44:30.616Z,0.00
2022-09-03T03:45:30.633Z,0.00
2022-09-03T03:46:30.632Z,0.00
2022-09-03T03:47:30.648Z,0.00
2022-09-03T03:48:30.650Z,0.00
2022-09-03T03:49:30.666Z,0.00
2022-09-03T03:50:30.671Z,0.00
2022-09-03T03:51:30.671Z,0.00
2022-09-03T03:52:30.689Z,0.00
2022-09-03T03:53:30.698Z,4.00
2022-09-03T03:54:30.698Z,0.00
2022-09-03T03:55:35.015Z,0.00
2022-09-03T03:56:30.711Z,4.00
2022-09-03T03:57:30.731Z,4.00
2022-09-03T03:58:30.728Z,0.00
2022-09-03T03:59:30.738Z,4.00
2022-09-03T04:00:30.752Z,4.00
2022-09-03T04:01:30.822Z,4.00
2022-09-03T04:02:30.821Z,8.00
2022-09-03T04:03:30.772Z,8.00
2022-09-03T04:04:30.787Z,8.00
2022-09-03T04:05:33.585Z,8.00
2022-09-03T04:06:30.800Z,12.00
2022-09-03T04:07:30.811Z,16.00
2022-09-03T04:08:30.809Z,16.00
2022-09-03T04:09:30.821Z,20.00
2022-09-03T04:10:30.837Z,24.00
2022-09-03T04:11:30.835Z,28.00
2022-09-03T04:12:30.844Z,32.00
2022-09-03T04:13:30.858Z,40.00
2022-09-03T04:14:30.866Z,44.00
2022-09-03T04:15:30.867Z,52.00
2022-09-03T04:16:30.899Z,60.00
2022-09-03T04:17:30.882Z,68.00
2022-09-03T04:18:30.899Z,76.00
2022-09-03T04:19:30.898Z,88.00
2022-09-03T04:20:30.912Z,100.00
2022-09-03T04:21:30.924Z,112.00
2022-09-03T04:22:30.931Z,124.00
2022-09-03T04:23:30.931Z,136.00
2022-09-03T04:24:30.940Z,152.00
2022-09-03T04:25:30.955Z,172.00
2022-09-03T04:26:30.956Z,188.00
2022-09-03T04:27:30.970Z,208.00
2022-09-03T04:28:30.975Z,228.00
2022-09-03T04:29:30.980Z,244.00
2022-09-03T04:30:31.037Z,264.00
2022-09-03T04:31:31.012Z,288.00
2022-09-03T04:32:31.011Z,312.00
2022-09-03T04:33:31.020Z,340.00
2022-09-03T04:34:31.018Z,364.00
2022-09-03T04:35:31.037Z,388.00
2022-09-03T04:36:31.066Z,416.00
2022-09-03T04:37:31.045Z,444.00
2022-09-03T04:38:31.054Z,476.00
2022-09-03T04:39:31.104Z,504.00
2022-09-03T04:40:31.067Z,532.00
2022-09-03T04:41:31.079Z,564.00
2022-09-03T04:42:31.082Z,596.00
2022-09-03T04:43:31.094Z,620.00
2022-09-03T04:44:31.107Z,652.00
2022-09-03T04:45:31.181Z,684.00
2022-09-03T04:46:31.211Z,716.00
2022-09-03T04:47:31.123Z,748.00
2022-09-03T04:48:31.141Z,784.00
2022-09-03T04:49:31.140Z,812.00
2022-09-03T04:50:31.148Z,840.00
2022-09-03T04:51:31.207Z,868.00
2022-09-03T04:52:31.172Z,900.00
2022-09-03T04:53:31.171Z,928.00
2022-09-03T04:54:31.187Z,956.00
2022-09-03T04:55:31.187Z,980.00
2022-09-03T04:56:31.197Z,1004.00
2022-09-03T04:57:31.202Z,1032.00
2022-09-03T04:58:31.211Z,1052.00
2022-09-03T04:59:31.226Z,1076.00
2022-09-03T05:00:31.236Z,1108.00
2022-09-03T05:01:31.325Z,1144.00
2022-09-03T05:02:31.305Z,1176.00
2022-09-03T05:03:31.251Z,1208.00
2022-09-03T05:04:31.265Z,1252.00
2022-09-03T05:05:31.268Z,1280.00
2022-09-03T05:06:31.273Z,1312.00
2022-09-03T05:07:31.282Z,1344.00
2022-09-03T05:08:31.296Z,1376.00
2022-09-03T05:09:31.307Z,1412.00
2022-09-03T05:10:31.316Z,1440.00
2022-09-03T05:11:31.322Z,1480.00
2022-09-03T05:12:31.328Z,1512.00
2022-09-03T05:13:31.337Z,1556.00
2022-09-03T05:14:31.343Z,1592.00
2022-09-03T05:15:31.347Z,1616.00
2022-09-03T05:16:31.639Z,1640.00
2022-09-03T05:17:34.076Z,1668.00
2022-09-03T05:18:31.370Z,1704.00
2022-09-03T05:19:31.379Z,1748.00
2022-09-03T05:20:31.384Z,1792.00
2022-09-03T05:21:31.488Z,1824.00
2022-09-03T05:22:31.411Z,1852.00
2022-09-03T05:23:34.372Z,1880.00
2022-09-03T05:24:31.426Z,1908.00
2022-09-03T05:25:31.437Z,1924.00
2022-09-03T05:26:31.441Z,1940.00
2022-09-03T05:27:31.447Z,1936.00
2022-09-03T05:28:31.458Z,1916.00
2022-09-03T05:29:31.464Z,1900.00
2022-09-03T05:30:31.473Z,1900.00
2022-09-03T05:31:31.729Z,1916.00
2022-09-03T05:32:31.489Z,1936.00
2022-09-03T05:33:31.488Z,1988.00
2022-09-03T05:34:31.497Z,2016.00
2022-09-03T05:35:31.504Z,2104.00
2022-09-03T05:36:31.529Z,2184.00
2022-09-03T05:37:31.532Z,2276.00
2022-09-03T05:38:31.529Z,2344.00
2022-09-03T05:39:31.617Z,2324.00
2022-09-03T05:40:31.553Z,2324.00
2022-09-03T05:41:31.563Z,2320.00
2022-09-03T05:42:31.566Z,2468.00
2022-09-03T05:43:31.567Z,2548.00
2022-09-03T05:44:31.585Z,2628.00
2022-09-03T05:45:31.626Z,2676.00
2022-09-03T05:46:32.058Z,2676.00
2022-09-03T05:47:31.603Z,2680.00
2022-09-03T05:48:31.609Z,2736.00
2022-09-03T05:49:31.623Z,2784.00
2022-09-03T05:50:31.624Z,2848.00
2022-09-03T05:51:31.632Z,2880.00
2022-09-03T05:52:31.650Z,2944.00
2022-09-03T05:53:31.654Z,3052.00
2022-09-03T05:54:31.663Z,3056.00
2022-09-03T05:55:31.663Z,3128.00
2022-09-03T05:56:31.678Z,3300.00
2022-09-03T05:58:24.253Z,3268.00
2022-09-03T05:59:24.259Z,3252.00
2022-09-03T06:00:24.269Z,3088.00
2022-09-03T06:01:24.273Z,2956.00
2022-09-03T06:02:24.430Z,2880.00
2022-09-03T06:03:24.577Z,2968.00
2022-09-03T06:04:24.300Z,3036.00
2022-09-03T06:05:24.298Z,3160.00
2022-09-03T06:06:24.318Z,3140.00
2022-09-03T06:07:24.315Z,3104.00
2022-09-03T06:08:24.324Z,3176.00
2022-09-03T06:09:24.339Z,3188.00
2022-09-03T06:10:27.022Z,3192.00
2022-09-03T06:11:24.347Z,3156.00
2022-09-03T06:12:24.356Z,3176.00
2022-09-03T06:13:24.556Z,3196.00
2022-09-03T06:14:24.370Z,3188.00
2022-09-03T06:15:24.387Z,3184.00
2022-09-03T06:16:29.030Z,3200.00
2022-09-03T06:17:24.395Z,3216.00
2022-09-03T06:18:24.529Z,3228.00
2022-09-03T06:19:24.412Z,3228.00
2022-09-03T06:20:24.420Z,3240.00
2022-09-03T06:21:24.429Z,3260.00
2022-09-03T06:22:24.441Z,3284.00
2022-09-03T06:23:24.452Z,3300.00
2022-09-03T06:24:26.483Z,3316.00
2022-09-03T06:25:24.460Z,3332.00
2022-09-03T06:26:24.474Z,3344.00
2022-09-03T06:27:24.484Z,3368.00
2022-09-03T06:28:24.759Z,3392.00
2022-09-03T06:29:24.492Z,3404.00
2022-09-03T06:30:24.508Z,3424.00
2022-09-03T06:31:24.660Z,3440.00
2022-09-03T06:32:24.517Z,3456.00
2022-09-03T06:33:24.622Z,3468.00
2022-09-03T06:34:24.542Z,3476.00
2022-09-03T06:35:24.544Z,3480.00
2022-09-03T06:36:24.549Z,3488.00
2022-09-03T06:37:24.557Z,3496.00
2022-09-03T06:38:24.696Z,3508.00
2022-09-03T06:39:24.639Z,3524.00
2022-09-03T06:40:24.583Z,3544.00
2022-09-03T06:41:24.591Z,3552.00
2022-09-03T06:42:24.604Z,3564.00
2022-09-03T06:43:24.615Z,3572.00
2022-09-03T06:44:24.614Z,3584.00
2022-09-03T06:45:24.671Z,3592.00
2022-09-03T06:46:24.630Z,3604.00
2022-09-03T06:47:24.647Z,3608.00
2022-09-03T06:48:24.790Z,3620.00
2022-09-03T06:49:24.653Z,3632.00
2022-09-03T06:50:24.703Z,3652.00
2022-09-03T06:51:24.678Z,3672.00
2022-09-03T06:52:24.687Z,3688.00
2022-09-03T06:53:24.690Z,3712.00
2022-09-03T06:54:24.703Z,3732.00
2022-09-03T06:55:24.705Z,3748.00
2022-09-03T06:56:24.713Z,3768.00
2022-09-03T06:57:24.729Z,3792.00
2022-09-03T06:58:24.891Z,3808.00
2022-09-03T06:59:24.748Z,3836.00
2022-09-03T07:00:24.753Z,3864.00
2022-09-03T07:01:24.896Z,3896.00
2022-09-03T07:02:27.456Z,3920.00
2022-09-03T07:03:24.779Z,3944.00
2022-09-03T07:04:29.115Z,3968.00
2022-09-03T07:05:24.795Z,3992.00
2022-09-03T07:10:33.970Z,4124.00
2022-09-03T07:11:33.968Z,4160.00
2022-09-03T07:12:33.980Z,4204.00
2022-09-03T07:13:33.989Z,4240.00
2022-09-03T07:14:35.007Z,4292.00
2022-09-03T07:15:34.009Z,4344.00
2022-09-03T07:16:34.093Z,4404.00
2022-09-03T07:17:34.018Z,4480.00
2022-09-03T07:18:36.656Z,4556.00
2022-09-03T07:19:34.039Z,4640.00
2022-09-03T07:20:34.051Z,4724.00
2022-09-03T07:21:34.062Z,4812.00
2022-09-03T07:22:34.057Z,4896.00
2022-09-03T07:23:34.068Z,4980.00
2022-09-03T07:24:34.081Z,5068.00
2022-09-03T07:25:34.086Z,5160.00
2022-09-03T07:26:34.091Z,5256.00
2022-09-03T07:27:34.103Z,5344.00
2022-09-03T07:28:34.106Z,5452.00
2022-09-03T07:30:16.660Z,5624.00
2022-09-03T07:31:16.670Z,5704.00
2022-09-03T07:32:16.729Z,5756.00
2022-09-03T07:33:16.684Z,5808.00
2022-09-03T07:34:17.209Z,5864.00
2022-09-03T07:35:59.252Z,5872.00
2022-09-03T07:36:59.254Z,5888.00
2022-09-03T07:37:59.269Z,5900.00
2022-09-03T07:38:59.272Z,5900.00
2022-09-03T07:39:59.340Z,5912.00
2022-09-03T07:40:59.286Z,5936.00
2022-09-03T07:41:59.305Z,5956.00
2022-09-03T07:44:39.429Z,6032.00
2022-09-03T07:45:39.432Z,6100.00
2022-09-03T07:46:39.477Z,6168.00
2022-09-03T07:52:23.692Z,6248.00
2022-09-03T07:53:23.700Z,6248.00
2022-09-03T07:54:23.701Z,6272.00
2022-09-03T07:55:23.718Z,6316.00
2022-09-03T07:56:23.725Z,6392.00
2022-09-03T07:57:23.733Z,6428.00
2022-09-03T07:58:23.862Z,6452.00
2022-09-03T07:59:23.743Z,6496.00
2022-09-03T08:00:23.808Z,6536.00
2022-09-03T08:01:23.760Z,6568.00
2022-09-03T08:02:23.771Z,6604.00
2022-09-03T08:03:23.838Z,6644.00
2022-09-03T08:04:23.788Z,6692.00
2022-09-03T08:05:23.803Z,6744.00
2022-09-03T08:07:06.350Z,6840.00
2022-09-03T08:08:06.360Z,6904.00
2022-09-03T08:09:06.379Z,6984.00
2022-09-03T08:10:06.385Z,7056.00
2022-09-03T08:11:06.385Z,7128.00
2022-09-03T08:12:06.402Z,7184.00
2022-09-03T08:13:06.410Z,7256.00
2022-09-03T08:14:06.835Z,7344.00
2022-09-03T08:15:06.427Z,7436.00
2022-09-03T08:16:06.457Z,7532.00
2022-09-03T08:17:06.447Z,7644.00
2022-09-03T08:18:06.454Z,7760.00
2022-09-03T08:19:06.457Z,7884.00
2022-09-03T08:20:06.468Z,8024.00
2022-09-03T08:21:06.476Z,8176.00
2022-09-03T08:22:09.310Z,8352.00
2022-09-03T08:23:06.496Z,8556.00
2022-09-03T08:24:06.513Z,8784.00
2022-09-03T08:25:06.523Z,9028.00
2022-09-03T08:26:06.529Z,9316.00
2022-09-03T08:27:06.534Z,9652.00
2022-09-03T08:28:06.548Z,10012.00
2022-09-03T08:29:06.551Z,10392.00
2022-09-03T08:30:06.568Z,10824.00
2022-09-03T08:31:06.631Z,11368.00
2022-09-03T08:32:06.581Z,12052.00
2022-09-03T08:33:06.596Z,12840.00
2022-09-03T08:34:06.994Z,13724.00
2022-09-03T08:35:06.608Z,19296.00
2022-09-03T08:36:06.620Z,37312.00
2022-09-03T08:37:06.636Z,52192.00
2022-09-03T08:38:06.638Z,53696.00
2022-09-03T08:39:06.653Z,54784.00
2022-09-03T08:40:06.660Z,55200.00
2022-09-03T08:43:32.541Z,57664.00
2022-09-03T08:44:32.547Z,58528.00
2022-09-03T08:45:32.559Z,58592.00
2022-09-03T15:34:07.041Z,26272.00
2022-09-03T15:35:07.047Z,16448.00
2022-09-03T15:37:19.682Z,22496.00
2022-09-03T15:38:19.698Z,10140.00
2022-09-03T15:39:19.732Z,9772.00
2022-09-03T15:40:19.739Z,10008.00
2022-09-03T15:41:19.759Z,17856.00
2022-09-03T15:42:19.773Z,9836.00
2022-09-03T15:44:07.356Z,8912.00
2022-09-03T15:45:07.362Z,8556.00
2022-09-03T15:46:07.435Z,8500.00
2022-09-03T15:47:09.504Z,9076.00
2022-09-03T15:48:07.415Z,24896.00
2022-09-03T15:49:07.431Z,24672.00
2022-09-03T15:50:07.448Z,23520.00
2022-09-03T15:51:07.464Z,14304.00
2022-09-03T15:52:07.485Z,10088.00
2022-09-03T15:53:07.499Z,10448.00
2022-09-03T15:54:07.514Z,7180.00
2022-09-03T15:55:07.543Z,9660.00
2022-09-03T15:56:11.665Z,7820.00
2022-09-03T15:57:07.569Z,8616.00
2022-09-03T15:58:07.589Z,7064.00
2022-09-03T15:59:07.599Z,9096.00
2022-09-03T16:00:07.617Z,8588.00
2022-09-03T16:01:07.694Z,7024.00
2022-09-03T16:02:07.654Z,6968.00
2022-09-03T16:03:07.746Z,5928.00
2022-09-03T16:04:07.731Z,5416.00
2022-09-03T16:05:07.703Z,5052.00
2022-09-03T16:06:07.722Z,4856.00
2022-09-03T16:07:07.728Z,4748.00
2022-09-03T16:08:07.754Z,4760.00
2022-09-03T16:09:07.760Z,4948.00
2022-09-03T16:10:37.737Z,5324.00
2022-09-03T16:11:07.799Z,5424.00
2022-09-03T16:12:07.814Z,5452.00
2022-09-03T16:13:07.843Z,5652.00
2022-09-03T16:14:07.838Z,6332.00
2022-09-03T16:15:07.856Z,6320.00
2022-09-03T16:16:07.933Z,6176.00
2022-09-03T16:20:13.853Z,5408.00
2022-09-03T16:21:13.865Z,5076.00
2022-09-03T16:22:13.882Z,4952.00
2022-09-03T16:23:13.889Z,4988.00
2022-09-03T16:29:45.741Z,5500.00
2022-09-03T16:30:45.749Z,5012.00
2022-09-03T16:31:45.812Z,5200.00
2022-09-03T16:32:45.776Z,5024.00
2022-09-03T16:33:45.795Z,4772.00
2022-09-03T16:34:45.807Z,4508.00
2022-09-03T16:35:45.827Z,4312.00
2022-09-03T16:36:45.845Z,4236.00
2022-09-03T16:37:45.857Z,4148.00
2022-09-03T16:38:45.867Z,4024.00
2022-09-03T16:39:45.951Z,3912.00
2022-09-03T16:40:45.894Z,3856.00
2022-09-03T16:41:45.909Z,3832.00
2022-09-03T16:42:45.933Z,3832.00
2022-09-03T16:43:46.197Z,3840.00
2022-09-03T16:44:45.953Z,3804.00
2022-09-03T16:45:46.054Z,3684.00
2022-09-03T16:46:45.981Z,3532.00
2022-09-03T16:47:46.002Z,3428.00
2022-09-03T16:48:46.017Z,3368.00
2022-09-03T16:49:46.023Z,3296.00
2022-09-03T16:50:46.043Z,3188.00
2022-09-03T16:51:46.060Z,3068.00
2022-09-03T16:52:46.071Z,2976.00
2022-09-03T16:53:46.093Z,2900.00
2022-09-03T16:54:51.846Z,2828.00
2022-09-03T16:55:46.110Z,2748.00
2022-09-03T16:56:46.123Z,2632.00
2022-09-03T16:57:46.144Z,2528.00
2022-09-03T16:58:46.151Z,2436.00
2022-09-03T16:59:46.166Z,2360.00
2022-09-03T17:00:46.342Z,2288.00
2022-09-03T17:01:46.394Z,2244.00
2022-09-03T17:02:46.236Z,2220.00
2022-09-03T17:03:46.227Z,2184.00
2022-09-03T17:04:46.237Z,2144.00
2022-09-03T17:05:46.255Z,2108.00
2022-09-03T17:06:46.262Z,2068.00
2022-09-03T17:07:46.275Z,2024.00
2022-09-03T17:08:46.290Z,1984.00
2022-09-03T17:09:46.311Z,1944.00
2022-09-03T17:10:46.325Z,1904.00
2022-09-03T17:11:46.338Z,1868.00
2022-09-03T17:12:46.344Z,1836.00
2022-09-03T17:13:46.359Z,1804.00
2022-09-03T17:14:46.378Z,1772.00
2022-09-03T17:15:46.461Z,1740.00
2022-09-03T17:16:46.451Z,1700.00
2022-09-03T17:17:46.414Z,1656.00
2022-09-03T17:18:46.434Z,1608.00
2022-09-03T17:19:46.443Z,1568.00
2022-09-03T17:20:49.425Z,1528.00
2022-09-03T17:21:46.476Z,1468.00
2022-09-03T17:22:46.487Z,1416.00
2022-09-03T17:23:46.501Z,1368.00
2022-09-03T17:24:46.513Z,1324.00
2022-09-03T17:25:46.520Z,1272.00
2022-09-03T17:26:46.535Z,1228.00
2022-09-03T17:27:46.547Z,1180.00
2022-09-03T17:28:46.566Z,1136.00
2022-09-03T17:29:46.573Z,1096.00
2022-09-03T17:30:46.587Z,1056.00
2022-09-03T17:31:46.695Z,1016.00
2022-09-03T17:32:46.623Z,972.00
2022-09-03T17:33:46.637Z,928.00
2022-09-03T17:34:46.640Z,888.00
2022-09-03T17:35:46.662Z,852.00
2022-09-03T17:36:46.673Z,812.00
2022-09-03T17:40:22.570Z,680.00
2022-09-03T17:44:03.482Z,548.00
2022-09-03T17:45:03.494Z,516.00
2022-09-03T17:46:03.513Z,484.00
2022-09-03T17:47:03.519Z,456.00
2022-09-03T17:48:03.531Z,428.00
2022-09-03T17:49:03.546Z,400.00
2022-09-03T17:50:03.565Z,372.00
2022-09-03T17:51:03.569Z,348.00
2022-09-03T17:52:03.588Z,320.00
2022-09-03T17:53:03.596Z,296.00
2022-09-03T17:54:03.607Z,276.00
2022-09-03T17:55:03.622Z,252.00
2022-09-03T17:56:03.633Z,232.00
2022-09-03T17:57:03.647Z,212.00
2022-09-03T17:58:03.666Z,196.00
2022-09-03T17:59:03.671Z,176.00
2022-09-03T18:00:03.685Z,160.00
2022-09-03T18:01:03.696Z,144.00
2022-09-03T18:02:03.756Z,128.00
2022-09-03T18:03:03.729Z,112.00
2022-09-03T18:04:05.513Z,100.00
2022-09-03T18:05:03.748Z,84.00
2022-09-03T18:06:56.327Z,68.00
2022-09-03T18:07:56.349Z,60.00
2022-09-03T18:08:56.357Z,48.00
2022-09-03T18:09:56.363Z,40.00
2022-09-03T18:13:52.314Z,24.00
2022-09-03T18:18:45.824Z,8.00
2022-09-03T18:19:45.837Z,8.00
2022-09-03T18:20:45.855Z,8.00
2022-09-03T18:21:45.865Z,8.00
2022-09-03T18:22:45.870Z,4.00
2022-09-03T18:23:45.884Z,8.00
2022-09-03T18:24:45.895Z,4.00
2022-09-03T18:25:45.906Z,4.00
2022-09-03T18:26:45.921Z,0.00
2022-09-03T18:27:45.943Z,4.00
2022-09-03T18:28:45.953Z,4.00
2022-09-03T18:29:45.956Z,4.00
2022-09-03T18:30:46.702Z,4.00
2022-09-03T18:31:46.087Z,0.00
2022-09-03T18:32:45.994Z,0.00
2022-09-03T18:33:46.016Z,0.00
2022-09-03T18:34:46.022Z,0.00
2022-09-03T18:35:46.040Z,0.00
2022-09-03T18:36:46.050Z,0.00
2022-09-03T18:37:46.062Z,0.00
2022-09-03T18:38:46.074Z,0.00
2022-09-03T18:39:46.169Z,0.00
2022-09-03T18:40:46.095Z,0.00
2022-09-03T18:41:46.111Z,0.00
2022-09-03T18:42:46.124Z,0.00
2022-09-03T18:43:46.136Z,0.00
2022-09-03T18:44:46.147Z,0.00
2022-09-03T18:46:15.143Z,0.00
2022-09-03T18:48:05.937Z,0.00
2022-09-03T18:48:46.231Z,0.00
2022-09-03T18:49:46.207Z,0.00
2022-09-03T18:50:46.220Z,0.00
2022-09-03T18:51:46.232Z,0.00
2022-09-03T18:52:46.238Z,0.00
2022-09-03T18:53:46.256Z,0.00
2022-09-03T18:55:06.702Z,0.00
2022-09-03T18:55:46.272Z,0.00
2022-09-03T18:56:46.287Z,0.00
2022-09-03T18:57:46.295Z,0.00
2022-09-03T18:58:46.308Z,0.00
2022-09-03T18:59:46.330Z,0.00
2022-09-03T19:00:46.340Z,0.00
2022-09-03T19:01:46.501Z,0.00
2022-09-03T19:02:46.448Z,0.00
2022-09-03T19:03:46.368Z,0.00
2022-09-03T19:04:46.388Z,0.00
2022-09-03T19:05:46.393Z,0.00
2022-09-03T19:06:46.404Z,0.00
2022-09-03T19:07:46.425Z,0.00
2022-09-03T19:08:46.428Z,0.00
2022-09-03T19:09:46.447Z,0.00
2022-09-03T19:10:46.460Z,0.00
2022-09-03T19:11:46.464Z,0.00
2022-09-03T19:12:48.857Z,0.00
2022-09-03T19:13:46.491Z,0.00
2022-09-03T19:14:46.499Z,0.00
2022-09-03T19:15:46.544Z,0.00
2022-09-03T19:16:46.530Z,0.00
2022-09-03T19:17:46.543Z,0.00
2022-09-03T19:18:46.559Z,0.00
2022-09-03T19:19:46.566Z,0.00
2022-09-03T19:20:46.571Z,0.00
2022-09-03T19:21:46.590Z,0.00
2022-09-03T19:22:46.597Z,0.00
2022-09-03T19:23:46.607Z,0.00
2022-09-03T19:24:46.625Z,0.00
2022-09-03T19:25:46.632Z,0.00
2022-09-03T19:26:46.642Z,0.00
2022-09-03T19:27:59.591Z,0.00
2022-09-03T19:28:46.667Z,0.00
2022-09-03T19:29:46.682Z,0.00
2022-09-03T19:30:50.683Z,0.00
2022-09-03T19:31:46.701Z,0.00
2022-09-03T19:32:46.719Z,0.00
2022-09-03T19:33:46.732Z,0.00
2022-09-03T19:34:46.736Z,0.00
2022-09-03T19:35:46.757Z,0.00
2022-09-03T19:36:46.762Z,0.00
2022-09-03T19:37:46.778Z,0.00
2022-09-03T19:38:46.790Z,0.00
2022-09-03T19:39:46.844Z,0.00
2022-09-03T19:40:46.807Z,0.00
2022-09-03T19:41:46.818Z,0.00
2022-09-03T19:42:46.835Z,0.00
2022-09-03T19:43:46.842Z,0.00
2022-09-03T19:44:46.862Z,0.00
2022-09-03T19:45:46.863Z,0.00
2022-09-03T19:46:46.877Z,0.00
2022-09-03T19:47:46.886Z,0.00
2022-09-03T19:48:46.907Z,0.00
2022-09-03T19:49:46.911Z,0.00
2022-09-03T19:50:47.915Z,0.00
2022-09-03T19:51:46.941Z,0.00
2022-09-03T19:52:46.948Z,0.00
2022-09-03T19:53:46.963Z,0.00
2022-09-03T19:54:46.969Z,0.00
2022-09-03T19:55:46.987Z,0.00
2022-09-03T19:56:46.992Z,0.00
2022-09-03T19:57:47.010Z,0.00
2022-09-03T19:58:47.194Z,0.00
2022-09-03T19:59:47.026Z,0.00
2022-09-03T20:00:47.037Z,0.00
2022-09-03T20:01:47.116Z,0.00
2022-09-03T20:02:47.095Z,0.00
2022-09-03T20:03:47.071Z,0.00
2022-09-03T20:04:47.082Z,0.00
2022-09-03T20:05:47.094Z,0.00
2022-09-03T20:06:47.104Z,0.00
2022-09-03T20:07:47.124Z,0.00
2022-09-03T20:08:47.136Z,0.00